Time;durP1;ratioP1;P1;durP2;ratioP2;P2;SDS_P1;SDS_P2;PMS_P1;PMS_P2;Temp;Humidity;BMP_temperature;BMP_pressure;BME280_temperature;BME280_humidity;BME280_pressure;Samples;Min_cycle;Max_cycle;Signal;HPM_P1;HPM_P2
2021/10/24 00:00:52;;;;;;;1.47;1.37;;;7.90;98.50;;;;;;5028409;28;20636;-73
2021/10/24 00:03:18;;;;;;;1.10;1.10;;;7.80;98.50;;;;;;5026813;28;20212;-73
2021/10/24 00:05:44;;;;;;;1.07;1.07;;;7.80;98.50;;;;;;5029168;28;20263;-73
2021/10/24 00:08:10;;;;;;;1.40;1.30;;;7.80;98.50;;;;;;5027001;28;20188;-74
2021/10/24 00:10:35;;;;;;;1.30;1.30;;;7.80;98.50;;;;;;5029528;28;20206;-73
2021/10/24 00:13:01;;;;;;;1.30;1.30;;;7.80;98.50;;;;;;5026678;28;20659;-73
2021/10/24 00:15:27;;;;;;;1.17;1.17;;;7.80;98.50;;;;;;5029560;28;20549;-73
2021/10/24 00:17:52;;;;;;;1.73;1.67;;;7.80;98.50;;;;;;5027990;28;20198;-74
2021/10/24 00:20:18;;;;;;;1.60;1.50;;;7.80;98.50;;;;;;5028055;28;20234;-72
2021/10/24 00:22:44;;;;;;;1.20;1.10;;;7.70;98.50;;;;;;5028815;28;20211;-73
2021/10/24 00:25:10;;;;;;;1.60;1.50;;;7.70;98.50;;;;;;5028227;28;20204;-73
2021/10/24 00:27:37;;;;;;;0.87;0.87;;;7.70;98.50;;;;;;5025076;28;20658;-73
2021/10/24 00:30:04;;;;;;;1.27;1.10;;;7.70;98.50;;;;;;5027468;28;20222;-73
2021/10/24 00:32:30;;;;;;;1.60;1.50;;;7.60;98.50;;;;;;5027840;28;20180;-73
2021/10/24 00:34:55;;;;;;;1.97;1.33;;;7.70;98.50;;;;;;5026385;28;20751;-72
2021/10/24 00:37:21;;;;;;;1.57;1.57;;;7.60;98.50;;;;;;5027896;28;20181;-73
2021/10/24 00:39:47;;;;;;;3.30;1.27;;;7.60;98.50;;;;;;5029251;28;20190;-73
2021/10/24 00:42:13;;;;;;;1.20;1.20;;;7.60;98.50;;;;;;5027639;28;20679;-72
2021/10/24 00:44:38;;;;;;;2.37;2.27;;;7.60;98.50;;;;;;5026494;28;20251;-73
2021/10/24 00:47:05;;;;;;;2.80;2.60;;;7.60;98.50;;;;;;5029020;28;20180;-72
2021/10/24 00:49:32;;;;;;;1.90;1.80;;;7.50;98.50;;;;;;5028303;28;20172;-72
2021/10/24 00:51:58;;;;;;;1.57;1.47;;;7.50;98.50;;;;;;5028127;28;20180;-73
2021/10/24 00:54:27;;;;;;;2.07;1.90;;;7.50;98.50;;;;;;5025832;28;20246;-72
2021/10/24 00:56:54;;;;;;;1.80;1.70;;;7.50;98.50;;;;;;5025051;28;20291;-72
2021/10/24 00:59:24;;;;;;;2.07;1.97;;;7.50;98.50;;;;;;5026016;28;20188;-72
2021/10/24 01:01:50;;;;;;;4.63;1.80;;;7.50;98.50;;;;;;5025689;28;20263;-72
2021/10/24 01:04:16;;;;;;;2.53;1.90;;;7.40;98.50;;;;;;5028414;28;20275;-73
2021/10/24 01:06:42;;;;;;;1.60;1.50;;;7.40;98.50;;;;;;5027067;28;20173;-72
2021/10/24 01:09:15;;;;;;;1.97;1.87;;;7.40;98.50;;;;;;5025488;28;20200;-73
2021/10/24 01:11:43;;;;;;;2.83;1.93;;;7.40;98.50;;;;;;5026120;28;20184;-73
2021/10/24 01:14:10;;;;;;;2.50;2.40;;;7.40;98.50;;;;;;5025055;28;20184;-72
2021/10/24 01:16:40;;;;;;;2.17;1.83;;;7.40;98.50;;;;;;5025485;28;20211;-72
2021/10/24 01:19:08;;;;;;;1.50;1.40;;;7.40;98.50;;;;;;5027470;28;20254;-72
2021/10/24 01:21:35;;;;;;;1.60;1.50;;;7.50;98.50;;;;;;5027892;28;20195;-72
2021/10/24 01:24:01;;;;;;;2.27;2.07;;;7.50;98.50;;;;;;5023919;28;20938;-72
2021/10/24 01:26:28;;;;;;;2.37;2.27;;;7.50;98.50;;;;;;5025818;28;20255;-72
2021/10/24 01:28:54;;;;;;;2.83;2.60;;;7.50;98.50;;;;;;5024830;28;20556;-72
2021/10/24 01:31:20;;;;;;;2.53;2.37;;;7.50;98.50;;;;;;5025667;28;20180;-72
2021/10/24 01:33:46;;;;;;;2.80;2.47;;;7.50;98.50;;;;;;5027465;28;20217;-72
2021/10/24 01:36:12;;;;;;;3.20;3.00;;;7.50;98.50;;;;;;5025507;28;20199;-73
2021/10/24 01:38:43;;;;;;;2.73;2.50;;;7.60;98.50;;;;;;5026600;28;20255;-72
2021/10/24 01:41:10;;;;;;;2.30;2.17;;;7.60;98.50;;;;;;5025821;28;20208;-73
2021/10/24 01:43:37;;;;;;;3.13;2.70;;;7.60;98.50;;;;;;5026481;28;20233;-72
2021/10/24 01:46:03;;;;;;;2.63;2.43;;;7.50;98.50;;;;;;5026106;28;20211;-72
2021/10/24 01:48:29;;;;;;;3.20;2.60;;;7.50;98.50;;;;;;5027980;28;20172;-72
2021/10/24 01:50:56;;;;;;;4.33;3.17;;;7.50;98.50;;;;;;5024411;28;20189;-71
2021/10/24 01:53:30;;;;;;;2.47;2.27;;;7.50;98.50;;;;;;5024987;28;20188;-71
2021/10/24 01:55:56;;;;;;;3.10;2.90;;;7.50;98.50;;;;;;5025325;28;20270;-72
2021/10/24 01:58:22;;;;;;;2.57;2.47;;;7.50;98.50;;;;;;5027503;28;20172;-72
2021/10/24 02:00:49;;;;;;;3.10;2.90;;;7.50;98.50;;;;;;5026215;28;20195;-72
2021/10/24 02:03:15;;;;;;;1.87;1.77;;;7.50;98.50;;;;;;5026272;28;20215;-71
2021/10/24 02:05:41;;;;;;;2.00;1.90;;;7.50;98.50;;;;;;5027441;28;20272;-72
2021/10/24 02:08:08;;;;;;;2.93;2.73;;;7.50;98.50;;;;;;5024899;28;20271;-72
2021/10/24 02:10:34;;;;;;;5.93;2.43;;;7.50;98.50;;;;;;5027109;28;20176;-72
2021/10/24 02:13:00;;;;;;;2.27;2.17;;;7.40;98.50;;;;;;5026896;28;20892;-72
2021/10/24 02:15:26;;;;;;;2.20;2.00;;;;;;;;;;5026205;28;20262;-72
2021/10/24 02:17:53;;;;;;;2.00;1.90;;;7.40;98.50;;;;;;5026106;28;20188;-71
2021/10/24 02:20:18;;;;;;;2.97;2.77;;;7.40;98.50;;;;;;5026859;28;20198;-72
2021/10/24 02:22:45;;;;;;;2.43;2.33;;;7.40;98.50;;;;;;5026136;28;20176;-72
2021/10/24 02:25:11;;;;;;;2.53;2.33;;;7.30;98.50;;;;;;5023377;28;20215;-72
2021/10/24 02:27:38;;;;;;;5.33;2.13;;;7.30;98.50;;;;;;5024350;28;20177;-72
2021/10/24 02:30:05;;;;;;;2.57;2.37;;;7.30;98.50;;;;;;5025013;28;20176;-72
2021/10/24 02:32:31;;;;;;;2.37;2.27;;;7.30;98.50;;;;;;5027229;28;20188;-72
2021/10/24 02:34:56;;;;;;;2.07;1.93;;;7.30;98.50;;;;;;5026219;28;20814;-72
2021/10/24 02:37:22;;;;;;;4.37;2.50;;;;;;;;;;5025712;28;20230;-72
2021/10/24 02:39:48;;;;;;;2.87;2.27;;;7.30;98.50;;;;;;5024355;28;20685;-72
2021/10/24 02:42:14;;;;;;;3.43;2.60;;;7.40;98.50;;;;;;5025856;28;20267;-72
2021/10/24 02:44:40;;;;;;;2.57;2.23;;;7.30;98.50;;;;;;5028020;28;20299;-72
2021/10/24 02:47:06;;;;;;;2.03;1.93;;;7.30;98.50;;;;;;5024222;28;20202;-73
2021/10/24 02:49:32;;;;;;;2.43;1.97;;;7.20;98.50;;;;;;5025295;28;20244;-72
2021/10/24 02:51:57;;;;;;;2.87;2.60;;;7.20;98.50;;;;;;5026539;28;20231;-72
2021/10/24 02:54:24;;;;;;;2.70;2.50;;;7.20;98.50;;;;;;5025151;28;20860;-72
2021/10/24 02:56:49;;;;;;;3.20;2.90;;;7.30;98.50;;;;;;5025977;28;20236;-72
2021/10/24 02:59:16;;;;;;;2.70;2.50;;;7.30;98.50;;;;;;5025481;28;20173;-72
2021/10/24 03:01:42;;;;;;;2.40;2.20;;;;;;;;;;5023973;28;20234;-72
2021/10/24 03:04:11;;;;;;;3.30;2.37;;;;;;;;;;5026586;28;20191;-72
2021/10/24 03:06:37;;;;;;;2.17;2.00;;;7.30;98.50;;;;;;5025556;28;20255;-72
2021/10/24 03:09:04;;;;;;;3.13;2.53;;;7.40;98.50;;;;;;5023865;28;20666;-71
2021/10/24 03:11:30;;;;;;;2.83;2.60;;;7.30;98.50;;;;;;5025198;28;20180;-72
2021/10/24 03:13:55;;;;;;;3.90;2.17;;;7.30;98.50;;;;;;5025736;28;20212;-71
2021/10/24 03:16:21;;;;;;;4.40;3.53;;;7.30;98.50;;;;;;5025001;28;20572;-72
2021/10/24 03:18:47;;;;;;;4.13;3.73;;;7.40;98.50;;;;;;5026101;28;20173;-72
2021/10/24 03:21:12;;;;;;;3.87;3.53;;;7.40;98.50;;;;;;5025652;28;20202;-72
2021/10/24 03:23:39;;;;;;;4.20;3.80;;;7.40;98.50;;;;;;5028616;28;20605;-72
2021/10/24 03:26:05;;;;;;;3.57;3.20;;;7.40;98.50;;;;;;5025759;28;20829;-72
2021/10/24 03:28:30;;;;;;;3.57;3.37;;;7.40;98.50;;;;;;5025194;28;20191;-72
2021/10/24 03:30:58;;;;;;;5.90;3.77;;;7.40;98.50;;;;;;5025945;28;20619;-72
2021/10/24 03:33:23;;;;;;;5.30;3.90;;;7.50;98.50;;;;;;5028488;28;20204;-71
2021/10/24 03:35:49;;;;;;;5.03;4.00;;;7.50;98.50;;;;;;5028929;28;20637;-74
2021/10/24 03:38:15;;;;;;;4.37;3.97;;;7.50;98.50;;;;;;5028886;28;20818;-73
2021/10/24 03:40:41;;;;;;;4.33;3.93;;;7.50;98.50;;;;;;5030549;28;20184;-74
2021/10/24 03:43:06;;;;;;;3.80;3.57;;;7.50;98.50;;;;;;5030627;28;20180;-72
2021/10/24 03:45:32;;;;;;;3.07;2.87;;;7.50;98.50;;;;;;5027722;28;20195;-73
2021/10/24 03:47:58;;;;;;;4.33;4.03;;;7.40;98.50;;;;;;5027266;28;20211;-72
2021/10/24 03:50:24;;;;;;;4.53;4.13;;;7.40;98.50;;;;;;5028064;28;20188;-72
2021/10/24 03:52:49;;;;;;;4.53;4.13;;;7.40;98.50;;;;;;5029649;28;20172;-72
2021/10/24 03:55:15;;;;;;;2.83;2.63;;;7.40;98.50;;;;;;5027788;28;20252;-73
2021/10/24 03:57:42;;;;;;;4.00;3.70;;;7.40;98.50;;;;;;5028373;28;20263;-72
2021/10/24 04:00:09;;;;;;;4.23;3.93;;;7.40;98.50;;;;;;5028960;28;20188;-73
2021/10/24 04:02:50;;;;;;;4.43;4.10;;;7.40;98.50;;;;;;5028449;28;20182;-73
2021/10/24 04:05:16;;;;;;;2.43;2.33;;;7.40;98.50;;;;;;5029117;28;20670;-73
2021/10/24 04:07:42;;;;;;;2.00;1.90;;;7.40;98.50;;;;;;5028608;28;20208;-73
2021/10/24 04:10:08;;;;;;;3.07;2.87;;;7.40;98.50;;;;;;5025849;28;20219;-72
2021/10/24 04:12:33;;;;;;;3.53;2.23;;;7.40;98.50;;;;;;5026169;28;21518;-73
2021/10/24 04:14:59;;;;;;;5.47;3.07;;;7.40;98.50;;;;;;5026710;28;20297;-73
2021/10/24 04:17:26;;;;;;;2.63;2.43;;;;;;;;;;5027978;28;20219;-73
2021/10/24 04:19:52;;;;;;;2.83;2.73;;;;;;;;;;5027395;28;20179;-74
2021/10/24 04:22:18;;;;;;;6.73;2.60;;;;;;;;;;5028050;28;20571;-74
2021/10/24 04:24:44;;;;;;;2.23;2.13;;;;;;;;;;5027857;28;20184;-73
2021/10/24 04:27:10;;;;;;;4.33;3.97;;;7.40;98.50;;;;;;5027839;28;20238;-72
2021/10/24 04:29:36;;;;;;;6.03;4.57;;;7.30;98.30;;;;;;5027520;28;20168;-73
2021/10/24 04:32:02;;;;;;;5.87;4.03;;;7.20;98.30;;;;;;5028602;28;20180;-73
2021/10/24 04:34:27;;;;;;;3.70;2.30;;;7.20;98.30;;;;;;5028433;28;20208;-74
2021/10/24 04:36:53;;;;;;;3.10;2.80;;;;;;;;;;5028297;28;20215;-73
2021/10/24 04:39:19;;;;;;;2.50;2.40;;;7.20;98.30;;;;;;5026589;28;20759;-72
2021/10/24 04:41:45;;;;;;;2.77;2.37;;;7.20;98.30;;;;;;5029362;28;20180;-73
2021/10/24 04:44:11;;;;;;;3.40;2.87;;;7.20;98.50;;;;;;5024301;28;20204;-74
2021/10/24 04:46:37;;;;;;;4.20;3.93;;;7.20;98.50;;;;;;5027556;28;20219;-73
2021/10/24 04:49:04;;;;;;;6.80;3.87;;;7.20;98.50;;;;;;5024236;28;20176;-73
2021/10/24 04:51:29;;;;;;;4.70;3.97;;;7.20;98.50;;;;;;5026891;28;20649;-73
2021/10/24 04:53:55;;;;;;;5.47;4.30;;;7.10;98.50;;;;;;5027013;28;20282;-72
2021/10/24 04:56:21;;;;;;;4.97;3.80;;;7.20;98.50;;;;;;5030102;28;20729;-73
2021/10/24 04:58:47;;;;;;;3.97;3.60;;;7.20;98.10;;;;;;5026229;28;20185;-73
2021/10/24 05:01:12;;;;;;;4.63;4.23;;;7.20;98.00;;;;;;5027783;28;20180;-72
2021/10/24 05:03:38;;;;;;;4.63;4.23;;;7.30;98.00;;;;;;5026723;28;20598;-72
2021/10/24 05:06:05;;;;;;;4.13;3.73;;;7.20;97.50;;;;;;5023550;28;20177;-74
2021/10/24 05:08:30;;;;;;;4.17;3.73;;;7.20;97.30;;;;;;5027854;28;20181;-74
2021/10/24 05:10:56;;;;;;;6.17;3.80;;;7.20;97.40;;;;;;5025943;28;20192;-73
2021/10/24 05:13:22;;;;;;;7.93;3.67;;;7.20;97.30;;;;;;5027050;28;20266;-72
2021/10/24 05:15:47;;;;;;;4.10;3.63;;;7.20;97.10;;;;;;5027167;28;20188;-72
2021/10/24 05:18:13;;;;;;;6.20;3.93;;;7.20;96.90;;;;;;5026670;28;20208;-72
2021/10/24 05:20:39;;;;;;;4.40;4.10;;;7.30;96.80;;;;;;5026501;28;20630;-72
2021/10/24 05:23:07;;;;;;;3.57;3.27;;;7.30;96.60;;;;;;5028021;28;20251;-72
2021/10/24 05:25:33;;;;;;;5.33;4.47;;;7.30;96.40;;;;;;5027135;28;20172;-72
2021/10/24 05:27:59;;;;;;;4.97;3.93;;;7.30;96.40;;;;;;5026491;28;20281;-73
2021/10/24 05:30:25;;;;;;;6.47;3.80;;;7.30;96.20;;;;;;5026643;28;20168;-73
2021/10/24 05:32:51;;;;;;;5.67;4.00;;;7.30;95.70;;;;;;5027821;28;20257;-74
2021/10/24 05:35:17;;;;;;;4.80;3.00;;;7.20;95.10;;;;;;5027584;28;20295;-74
2021/10/24 05:37:43;;;;;;;3.27;2.90;;;7.20;95.40;;;;;;5026599;28;20180;-74
2021/10/24 05:40:10;;;;;;;5.17;2.73;;;7.20;95.40;;;;;;5027563;28;20192;-74
2021/10/24 05:42:36;;;;;;;3.83;3.53;;;7.20;95.50;;;;;;5026372;28;20570;-74
2021/10/24 05:45:03;;;;;;;4.30;3.93;;;7.20;95.40;;;;;;5025774;28;20188;-74
2021/10/24 05:47:28;;;;;;;3.80;3.53;;;7.20;95.50;;;;;;5024171;28;20187;-74
2021/10/24 05:49:55;;;;;;;4.70;3.93;;;7.10;95.30;;;;;;5026494;28;20739;-73
2021/10/24 05:52:22;;;;;;;4.87;4.13;;;7.10;95.20;;;;;;5027266;28;20753;-74
2021/10/24 05:54:48;;;;;;;4.57;4.07;;;7.10;95.30;;;;;;5025534;28;20204;-75
2021/10/24 05:57:14;;;;;;;4.17;3.80;;;7.10;95.10;;;;;;5025475;28;20193;-72
2021/10/24 05:59:41;;;;;;;5.07;4.40;;;7.10;95.30;;;;;;5025692;28;20176;-73
2021/10/24 06:02:09;;;;;;;3.93;3.60;;;7.10;95.10;;;;;;5025911;28;20196;-72
2021/10/24 06:04:35;;;;;;;7.10;4.00;;;7.10;95.00;;;;;;5025191;28;20183;-73
2021/10/24 06:07:01;;;;;;;6.30;4.73;;;7.10;94.90;;;;;;5026743;28;20172;-72
2021/10/24 06:09:40;;;;;;;5.37;4.13;;;7.10;95.00;;;;;;5025771;28;20185;-71
2021/10/24 06:12:07;;;;;;;4.80;4.30;;;7.10;94.80;;;;;;5025373;28;20291;-72
2021/10/24 06:14:33;;;;;;;4.50;3.87;;;;;;;;;;5026057;28;20207;-73
2021/10/24 06:16:59;;;;;;;3.60;3.30;;;7.10;95.20;;;;;;5026146;28;20185;-73
2021/10/24 06:19:25;;;;;;;4.83;3.17;;;7.10;95.30;;;;;;5027081;28;20266;-74
2021/10/24 06:21:51;;;;;;;4.37;3.37;;;7.10;94.70;;;;;;5025855;28;20271;-74
2021/10/24 06:24:17;;;;;;;2.80;2.60;;;7.00;94.70;;;;;;5027061;28;20742;-74
2021/10/24 06:26:44;;;;;;;3.03;2.73;;;7.00;94.60;;;;;;5026442;28;20233;-73
2021/10/24 06:29:12;;;;;;;2.90;2.30;;;7.00;95.00;;;;;;5026423;28;20184;-72
2021/10/24 06:31:38;;;;;;;2.40;2.23;;;;;;;;;;5025670;28;20184;-72
2021/10/24 06:34:04;;;;;;;3.47;2.87;;;6.90;94.50;;;;;;5025204;28;20228;-72
2021/10/24 06:36:30;;;;;;;3.00;2.77;;;6.90;94.60;;;;;;5027067;28;20186;-73
2021/10/24 06:38:56;;;;;;;3.00;2.77;;;6.90;94.80;;;;;;5025612;28;20223;-72
2021/10/24 06:41:22;;;;;;;2.70;2.50;;;;;;;;;;5024010;28;20755;-73
2021/10/24 06:43:48;;;;;;;2.87;2.57;;;;;;;;;;5026304;28;20284;-73
2021/10/24 06:46:14;;;;;;;2.87;2.67;;;;;;;;;;5026023;28;20283;-73
2021/10/24 06:48:40;;;;;;;4.10;2.20;;;;;;;;;;5024473;28;20181;-73
2021/10/24 06:51:06;;;;;;;4.07;2.60;;;;;;;;;;5026529;28;20183;-73
2021/10/24 06:53:32;;;;;;;3.00;2.60;;;;;;;;;;5025324;28;20838;-73
2021/10/24 06:55:58;;;;;;;3.40;3.30;;;;;;;;;;5025676;28;20719;-73
2021/10/24 06:58:24;;;;;;;3.60;2.90;;;;;;;;;;5023111;28;20177;-73
2021/10/24 07:00:50;;;;;;;3.07;2.57;;;7.40;93.50;;;;;;5026785;28;20195;-73
2021/10/24 07:03:20;;;;;;;5.80;2.87;;;;;;;;;;5025908;28;20233;-71
2021/10/24 07:05:46;;;;;;;4.97;3.43;;;;;;;;;;5023953;28;20185;-72
2021/10/24 07:08:12;;;;;;;5.27;3.73;;;;;;;;;;5030673;28;20654;-73
2021/10/24 07:10:38;;;;;;;2.30;2.20;;;7.60;91.80;;;;;;5025756;28;20256;-72
2021/10/24 07:13:04;;;;;;;2.77;2.57;;;7.60;92.10;;;;;;5027852;28;20267;-72
2021/10/24 07:15:30;;;;;;;2.50;2.33;;;7.70;91.90;;;;;;5029505;28;20210;-72
2021/10/24 07:17:56;;;;;;;3.13;2.90;;;7.90;91.80;;;;;;5029384;28;20177;-72
2021/10/24 07:20:22;;;;;;;6.47;4.20;;;7.90;91.70;;;;;;5028732;28;20176;-74
2021/10/24 07:22:48;;;;;;;3.77;3.47;;;;;;;;;;5029307;28;20263;-73
2021/10/24 07:25:14;;;;;;;5.90;4.83;;;8.20;90.20;;;;;;5026593;28;20669;-73
2021/10/24 07:27:41;;;;;;;5.03;4.63;;;8.40;90.30;;;;;;5029255;28;20262;-72
2021/10/24 07:30:08;;;;;;;5.77;4.80;;;8.60;90.40;;;;;;5028871;28;20177;-71
2021/10/24 07:32:35;;;;;;;3.73;3.33;;;8.80;89.00;;;;;;5028601;28;20188;-72
2021/10/24 07:35:02;;;;;;;2.60;2.50;;;8.80;88.10;;;;;;5026224;28;20640;-72
2021/10/24 07:37:28;;;;;;;3.03;2.83;;;;;;;;;;5029400;28;20180;-73
2021/10/24 07:39:54;;;;;;;3.10;2.80;;;8.90;87.70;;;;;;5025773;28;20271;-72
2021/10/24 07:42:19;;;;;;;3.07;2.77;;;8.90;87.20;;;;;;5028600;28;20276;-72
2021/10/24 07:44:45;;;;;;;3.00;2.80;;;8.80;85.10;;;;;;5028473;28;20816;-74
2021/10/24 07:47:14;;;;;;;2.67;2.37;;;;;;;;;;5029475;28;20263;-70
2021/10/24 07:49:40;;;;;;;5.23;2.63;;;8.70;86.10;;;;;;5029394;28;20266;-71
2021/10/24 07:52:05;;;;;;;3.27;2.97;;;8.60;86.20;;;;;;5030096;28;20181;-70
2021/10/24 07:54:31;;;;;;;2.63;2.47;;;;;;;;;;5027608;28;20216;-70
2021/10/24 07:56:58;;;;;;;2.57;2.40;;;;;;;;;;5026658;28;20207;-71
2021/10/24 07:59:24;;;;;;;2.97;2.20;;;9.10;86.70;;;;;;5027002;28;20204;-74
2021/10/24 08:01:50;;;;;;;4.43;4.00;;;;;;;;;;5027196;28;20192;-73
2021/10/24 08:04:16;;;;;;;2.97;2.77;;;9.50;84.20;;;;;;5028170;28;20663;-74
2021/10/24 08:06:42;;;;;;;7.77;3.27;;;;;;;;;;5026718;28;20275;-74
2021/10/24 08:09:10;;;;;;;3.30;2.27;;;10.20;83.80;;;;;;5027384;28;20701;-74
2021/10/24 08:11:37;;;;;;;2.67;1.93;;;10.80;82.10;;;;;;5027411;28;20184;-74
2021/10/24 08:14:06;;;;;;;2.72;2.53;;;11.20;80.80;;;;;;5027973;28;20303;-74
2021/10/24 08:16:32;;;;;;;2.53;2.28;;;11.60;79.80;;;;;;5024895;28;20204;-72
2021/10/24 08:18:58;;;;;;;5.00;3.13;;;12.10;77.50;;;;;;5028247;28;20219;-75
2021/10/24 08:21:24;;;;;;;2.42;2.33;;;12.40;76.00;;;;;;5027625;28;20674;-72
2021/10/24 08:23:50;;;;;;;6.75;2.75;;;12.30;74.70;;;;;;5027963;28;20946;-73
2021/10/24 08:26:16;;;;;;;3.33;2.10;;;12.10;75.20;;;;;;5026194;28;20216;-73
2021/10/24 08:28:42;;;;;;;2.95;2.33;;;11.90;74.70;;;;;;5026153;28;20963;-72
2021/10/24 08:31:08;;;;;;;3.33;3.15;;;11.90;74.80;;;;;;5027726;28;20185;-71
2021/10/24 08:33:34;;;;;;;5.57;2.28;;;11.70;75.60;;;;;;5027132;28;20327;-72
2021/10/24 08:36:01;;;;;;;2.60;2.40;;;11.50;76.10;;;;;;5027054;28;20176;-70
2021/10/24 08:38:28;;;;;;;2.80;2.60;;;11.30;75.30;;;;;;5026494;28;20187;-71
2021/10/24 08:40:55;;;;;;;2.58;2.47;;;11.00;76.00;;;;;;5027512;28;20243;-70
2021/10/24 08:43:28;;;;;;;3.42;2.67;;;10.80;76.20;;;;;;5024062;28;20647;-71
2021/10/24 08:45:55;;;;;;;2.58;2.38;;;10.70;75.70;;;;;;5028351;28;20172;-75
2021/10/24 08:48:20;;;;;;;2.03;1.92;;;10.60;76.60;;;;;;5029054;28;20172;-74
2021/10/24 08:50:47;;;;;;;4.32;2.15;;;;;;;;;;5027425;28;20195;-74
2021/10/24 08:53:14;;;;;;;2.28;2.08;;;11.20;74.40;;;;;;5027422;28;20622;-73
2021/10/24 08:55:41;;;;;;;2.72;2.47;;;11.90;73.80;;;;;;5028408;28;20578;-76
2021/10/24 08:58:08;;;;;;;4.38;2.42;;;12.50;72.20;;;;;;5027477;28;20182;-75
2021/10/24 09:00:34;;;;;;;3.95;2.42;;;13.00;71.80;;;;;;5028002;28;20187;-78
2021/10/24 09:03:09;;;;;;;1.73;1.63;;;13.30;69.90;;;;;;5028448;28;20856;-74
2021/10/24 09:06:06;;;;;;;1.98;1.85;;;13.70;70.00;;;;;;5026951;28;20211;-74
2021/10/24 09:08:35;;;;;;;2.20;2.05;;;14.40;69.10;;;;;;4995924;28;20586;-74
2021/10/24 09:11:02;;;;;;;1.45;1.42;;;14.90;67.80;;;;;;4991417;28;20192;-73
2021/10/24 09:13:33;;;;;;;2.50;2.30;;;14.90;67.80;;;;;;4986507;28;20225;-74
2021/10/24 09:16:03;;;;;;;3.33;3.13;;;15.30;69.00;;;;;;4994333;28;20186;-75
2021/10/24 09:18:37;;;;;;;2.58;2.45;;;15.70;64.90;;;;;;4996212;28;20271;-74
2021/10/24 09:21:15;;;;;;;3.28;3.08;;;15.90;65.20;;;;;;4973095;28;20197;-74
2021/10/24 09:24:06;;;;;;;2.60;2.47;;;16.20;64.90;;;;;;4992931;28;20192;-74
2021/10/24 09:26:32;;;;;;;2.33;2.22;;;16.80;64.60;;;;;;4931201;29;20278;-74
2021/10/24 09:28:58;;;;;;;2.90;2.72;;;17.50;63.70;;;;;;4937482;28;20207;-74
2021/10/24 09:31:32;;;;;;;3.20;2.90;;;17.90;62.00;;;;;;4936942;29;20203;-75
2021/10/24 09:34:12;;;;;;;3.45;3.15;;;18.10;61.20;;;;;;4934611;29;20222;-75
2021/10/24 09:36:52;;;;;;;2.67;2.47;;;18.30;60.70;;;;;;4932951;29;20192;-74
2021/10/24 09:39:18;;;;;;;5.03;2.80;;;18.40;60.80;;;;;;4935003;29;20336;-74
2021/10/24 09:41:45;;;;;;;2.13;2.03;;;18.30;59.20;;;;;;4936999;29;20234;-74
2021/10/24 09:44:13;;;;;;;3.00;2.90;;;18.40;61.40;;;;;;4945800;28;20275;-74
2021/10/24 09:46:56;;;;;;;2.70;2.60;;;18.60;59.90;;;;;;4986274;28;20232;-72
2021/10/24 09:49:23;;;;;;;2.38;2.28;;;19.00;58.90;;;;;;4985524;28;20217;-74
2021/10/24 09:51:50;;;;;;;3.70;2.83;;;18.90;57.80;;;;;;4984541;28;20273;-75
2021/10/24 09:54:21;;;;;;;1.92;1.83;;;18.70;56.50;;;;;;4982085;28;20320;-71
2021/10/24 09:56:48;;;;;;;1.77;1.67;;;18.70;56.90;;;;;;4984129;28;20730;-70
2021/10/24 09:59:16;;;;;;;2.00;1.90;;;19.00;56.90;;;;;;4984380;28;20181;-70
2021/10/24 10:01:44;;;;;;;2.92;2.72;;;19.20;55.20;;;;;;4985569;28;20204;-71
2021/10/24 10:04:11;;;;;;;2.35;2.25;;;19.40;55.40;;;;;;5016338;28;20188;-70
2021/10/24 10:06:37;;;;;;;2.75;2.55;;;19.80;57.20;;;;;;5026386;28;20180;-70
2021/10/24 10:09:03;;;;;;;2.05;1.95;;;20.30;55.10;;;;;;5027983;28;20670;-71
2021/10/24 10:11:35;;;;;;;1.90;1.80;;;20.60;54.30;;;;;;5026483;28;20179;-71
2021/10/24 10:14:07;;;;;;;4.55;2.22;;;20.90;55.20;;;;;;5024255;28;20220;-71
2021/10/24 10:16:37;;;;;;;2.63;2.40;;;21.20;54.90;;;;;;5026449;28;20195;-70
2021/10/24 10:19:05;;;;;;;2.35;1.70;;;21.60;54.60;;;;;;5025664;28;20184;-71
2021/10/24 10:21:42;;;;;;;1.83;1.48;;;22.00;52.70;;;;;;5026086;28;20223;-71
2021/10/24 10:24:12;;;;;;;2.00;1.90;;;22.50;51.50;;;;;;5028241;28;20180;-71
2021/10/24 10:26:41;;;;;;;1.83;1.73;;;23.10;53.90;;;;;;5027221;28;20717;-69
2021/10/24 10:29:10;;;;;;;1.77;1.65;;;23.70;52.30;;;;;;5024196;28;20757;-75
2021/10/24 10:31:36;;;;;;;2.50;2.13;;;24.00;49.70;;;;;;5025714;28;20187;-74
2021/10/24 10:34:05;;;;;;;1.63;1.63;;;23.40;48.80;;;;;;5025783;28;20225;-73
2021/10/24 10:37:00;;;;;;;1.63;1.52;;;23.10;50.20;;;;;;5025812;28;20547;-73
2021/10/24 10:39:32;;;;;;;2.05;1.73;;;22.90;50.40;;;;;;5003638;28;20247;-75
2021/10/24 10:42:27;;;;;;;2.17;2.10;;;23.30;52.90;;;;;;5005022;28;22529;-75
2021/10/24 10:45:14;;;;;;;3.78;1.73;;;23.80;49.80;;;;;;4938276;29;20199;-76
2021/10/24 10:48:01;;;;;;;2.47;2.30;;;24.20;51.30;;;;;;4933976;29;20697;-75
2021/10/24 10:50:27;;;;;;;2.40;2.10;;;24.90;52.00;;;;;;4938530;29;20277;-76
2021/10/24 10:52:53;;;;;;;1.63;1.52;;;25.40;48.60;;;;;;4937859;29;20267;-75
2021/10/24 10:55:19;;;;;;;1.35;1.30;;;25.40;48.20;;;;;;4939456;28;20245;-74
2021/10/24 10:57:46;;;;;;;4.60;2.00;;;25.40;47.00;;;;;;4938983;29;20834;-76
2021/10/24 11:00:41;;;;;;;1.92;1.83;;;25.10;46.50;;;;;;4933342;29;20198;-74
2021/10/24 11:03:07;;;;;;;1.40;1.40;;;24.60;46.30;;;;;;4858628;29;20297;-74
2021/10/24 11:05:34;;;;;;;1.70;1.60;;;24.50;47.40;;;;;;4856835;29;20289;-73
2021/10/24 11:08:00;;;;;;;7.13;2.03;;;24.30;49.60;;;;;;4860742;29;20197;-73
2021/10/24 11:10:45;;;;;;;2.63;1.85;;;24.30;48.60;;;;;;4859436;29;20190;-73
2021/10/24 11:13:26;;;;;;;2.13;1.80;;;24.20;48.40;;;;;;4856940;29;20226;-74
2021/10/24 11:15:52;;;;;;;1.95;1.83;;;24.50;49.70;;;;;;4874009;29;20201;-74
2021/10/24 11:18:34;;;;;;;1.50;1.40;;;24.70;49.30;;;;;;4880404;29;20204;-73
2021/10/24 11:21:00;;;;;;;2.08;1.23;;;25.20;49.50;;;;;;4891674;29;20199;-72
2021/10/24 11:23:30;;;;;;;3.25;1.38;;;25.60;48.30;;;;;;4949021;28;20198;-76
2021/10/24 11:25:58;;;;;;;1.63;1.63;;;25.90;48.10;;;;;;4948196;28;20203;-76
2021/10/24 11:28:28;;;;;;;1.60;1.52;;;25.90;48.20;;;;;;4948767;28;20731;-76
2021/10/24 11:31:01;;;;;;;1.83;1.52;;;26.00;47.50;;;;;;4948341;28;20191;-75
2021/10/24 11:33:28;;;;;;;1.45;1.45;;;26.30;46.60;;;;;;4947612;28;20245;-76
2021/10/24 11:35:54;;;;;;;1.60;1.50;;;26.30;46.90;;;;;;4947091;29;20270;-76
2021/10/24 11:38:24;;;;;;;1.70;1.60;;;26.30;46.60;;;;;;4948438;28;20278;-76
2021/10/24 11:40:50;;;;;;;3.55;1.42;;;26.30;46.90;;;;;;5028937;28;20211;-77
2021/10/24 11:43:23;;;;;;;1.15;1.13;;;26.40;45.80;;;;;;5027628;28;20203;-76
2021/10/24 11:45:54;;;;;;;1.13;1.13;;;26.70;45.50;;;;;;5025792;28;20195;-76
2021/10/24 11:48:28;;;;;;;1.05;1.02;;;26.90;45.40;;;;;;5027692;28;20173;-75
2021/10/24 11:51:02;;;;;;;1.40;1.17;;;27.20;47.40;;;;;;5027426;28;20173;-76
2021/10/24 11:53:27;;;;;;;1.70;1.60;;;27.20;47.40;;;;;;5027460;28;20202;-76
2021/10/24 11:56:24;;;;;;;1.27;1.17;;;27.10;45.50;;;;;;5027238;28;20180;-76
2021/10/24 12:01:35;;;;;;;1.50;1.40;;;25.60;45.30;;;;;;5021917;28;20279;-76
2021/10/24 12:04:09;;;;;;;1.30;1.30;;;25.20;44.90;;;;;;5024553;28;20769;-75
2021/10/24 12:06:58;;;;;;;2.42;2.28;;;24.90;46.30;;;;;;5024241;28;20432;-75
2021/10/24 12:09:53;;;;;;;1.98;1.92;;;24.10;44.40;;;;;;5021835;28;20234;-75
2021/10/24 12:12:41;;;;;;;1.67;1.67;;;22.50;45.80;;;;;;5004213;28;20329;-76
2021/10/24 12:15:13;;;;;;;1.92;1.70;;;22.10;47.30;;;;;;5003821;28;20225;-71
2021/10/24 12:17:41;;;;;;;2.50;1.73;;;21.80;51.30;;;;;;5003560;28;20232;-74
2021/10/24 12:20:11;;;;;;;2.38;2.28;;;22.00;48.50;;;;;;5001032;28;20189;-72
2021/10/24 12:22:52;;;;;;;2.15;1.50;;;21.40;49.90;;;;;;5007511;28;20304;-71
2021/10/24 12:25:34;;;;;;;1.40;1.35;;;21.30;49.50;;;;;;5005242;28;20321;-71
2021/10/24 12:28:17;;;;;;;1.60;1.50;;;21.30;50.60;;;;;;5004023;28;20199;-70
2021/10/24 12:30:55;;;;;;;2.67;1.20;;;21.20;49.30;;;;;;5002909;28;20861;-71
2021/10/24 12:33:30;;;;;;;2.15;1.42;;;21.10;50.60;;;;;;4893680;28;3195513;-72
2021/10/24 12:36:00;;;;;;;1.40;1.30;;;21.30;51.00;;;;;;4987373;28;20693;-72
2021/10/24 12:39:00;;;;;;;1.60;1.00;;;21.70;50.60;;;;;;5006062;28;20183;-72
2021/10/24 12:41:34;;;;;;;1.13;1.13;;;21.90;49.40;;;;;;5003003;28;20197;-70
2021/10/24 12:44:04;;;;;;;1.52;1.48;;;21.80;48.90;;;;;;5001004;28;20641;-71
2021/10/24 12:46:34;;;;;;;1.75;1.65;;;21.70;49.00;;;;;;5005121;28;20185;-70
2021/10/24 12:49:19;;;;;;;1.38;1.35;;;21.70;50.40;;;;;;5015765;28;20591;-70
2021/10/24 12:51:48;;;;;;;1.48;1.23;;;22.00;51.30;;;;;;5025771;28;20187;-71
2021/10/24 12:54:26;;;;;;;1.42;1.33;;;22.50;50.60;;;;;;5026938;28;20275;-70
2021/10/24 12:56:52;;;;;;;1.05;1.05;;;23.00;51.00;;;;;;5025890;28;20180;-71
2021/10/24 12:59:18;;;;;;;1.27;1.27;;;23.00;51.10;;;;;;5025197;28;20183;-71
2021/10/24 13:01:48;;;;;;;1.20;1.20;;;23.90;48.40;;;;;;5025895;28;20188;-71
2021/10/24 13:04:15;;;;;;;1.70;1.60;;;24.00;47.10;;;;;;5026812;28;20271;-71
2021/10/24 13:06:41;;;;;;;2.05;1.30;;;;;;;;;;5022961;28;20658;-72
2021/10/24 13:09:06;;;;;;;1.60;1.50;;;23.00;47.60;;;;;;5024476;28;20651;-72
2021/10/24 13:11:32;;;;;;;1.33;1.23;;;22.60;47.50;;;;;;5025017;28;20177;-72